Terminal Aerodrome Forecast
Issued by NWS

Home | Current Version | Previous Version | Text Only | Print | Product List | Glossary On
Versions: 1 2 3 4 5 6 7 8 9 10 11 12 13 14 15 16 17 18 19 20
000
FTUS43 KDLH 250200 AAB
TAFBRD
TAF AMD
KBRD 250201Z 2502/2524 09008KT P6SM OVC035
      TEMPO 2503/2504 -RA SCT015 OVC030
     FM250400 08006KT 6SM BR OVC028
     FM251600 07009KT P6SM BKN030
     FM251900 06008KT P6SM BKN035
     FM252200 05008KT P6SM BKN080=

USA.gov is the U.S. government's official web portal to all federal, state and local government web resources and services.